Time;durP1;ratioP1;P1;durP2;ratioP2;P2;SDS_P1;SDS_P2;PMS_P1;PMS_P2;Temp;Humidity;BMP_temperature;BMP_pressure;BME280_temperature;BME280_humidity;BME280_pressure;Samples;Min_cycle;Max_cycle;Signal;HPM_P1;HPM_P2
2022/04/01 00:02:19;;;;;;;7.35;6.75;;;4.80;99.90;;;;;;5081335;28;20089;-67
2022/04/01 00:04:45;;;;;;;7.47;6.78;;;4.70;99.90;;;;;;5080170;28;20065;-66
2022/04/01 00:07:11;;;;;;;7.47;6.78;;;4.70;99.90;;;;;;5080961;28;20032;-67
2022/04/01 00:09:37;;;;;;;7.60;6.90;;;4.80;99.90;;;;;;5065631;28;20040;-68
2022/04/01 00:12:05;;;;;;;7.25;6.55;;;4.80;99.90;;;;;;5081339;28;20406;-67
2022/04/01 00:14:31;;;;;;;8.15;7.07;;;4.70;99.90;;;;;;5081301;28;20032;-67
2022/04/01 00:16:57;;;;;;;7.40;6.70;;;4.80;99.90;;;;;;5080888;28;20036;-66
2022/04/01 00:19:25;;;;;;;7.32;6.63;;;4.80;99.90;;;;;;5048154;28;20404;-66
2022/04/01 00:21:51;;;;;;;6.35;5.72;;;4.80;99.90;;;;;;5063747;28;20398;-66
2022/04/01 00:24:17;;;;;;;6.50;5.82;;;4.70;99.90;;;;;;5080593;28;20408;-68
2022/04/01 00:26:45;;;;;;;6.05;5.45;;;4.70;99.90;;;;;;5081191;28;20064;-68
2022/04/01 00:29:17;;;;;;;5.43;4.93;;;4.50;99.90;;;;;;5064978;28;20040;-65
2022/04/01 00:31:58;;;;;;;5.35;4.85;;;4.40;99.90;;;;;;5065297;28;20053;-68
2022/04/01 00:34:26;;;;;;;5.15;4.68;;;4.50;99.90;;;;;;5080606;28;20020;-67
2022/04/01 00:36:52;;;;;;;4.65;4.22;;;4.30;99.90;;;;;;5081056;28;20058;-69
2022/04/01 00:39:20;;;;;;;4.22;3.85;;;4.30;99.90;;;;;;5081115;28;20048;-67
2022/04/01 00:41:47;;;;;;;4.40;4.03;;;4.30;99.90;;;;;;5080454;28;20039;-67
2022/04/01 00:44:25;;;;;;;4.22;3.92;;;4.30;99.90;;;;;;5081853;28;20078;-66
2022/04/01 00:46:54;;;;;;;4.20;3.80;;;4.40;99.90;;;;;;5080616;28;20048;-67
2022/04/01 00:49:21;;;;;;;4.28;3.88;;;4.50;99.90;;;;;;5080491;28;20410;-66
2022/04/01 00:51:49;;;;;;;4.20;3.65;;;4.50;99.90;;;;;;5080920;28;20379;-66
2022/04/01 00:54:16;;;;;;;4.03;3.63;;;4.30;99.90;;;;;;5079975;28;20040;-69
2022/04/01 00:56:42;;;;;;;4.00;3.70;;;4.30;99.90;;;;;;5079726;28;20028;-67
2022/04/01 00:59:12;;;;;;;3.95;3.55;;;4.20;99.90;;;;;;5080416;28;20127;-66
2022/04/01 01:01:47;;;;;;;4.40;3.80;;;4.20;99.90;;;;;;5080173;28;20116;-66
2022/04/01 01:04:14;;;;;;;4.38;3.45;;;4.00;99.90;;;;;;5080728;28;20036;-67
2022/04/01 01:06:45;;;;;;;3.97;3.67;;;4.00;99.90;;;;;;5063722;28;20063;-67
2022/04/01 01:09:12;;;;;;;3.95;3.55;;;4.00;99.90;;;;;;5079606;28;20327;-66
2022/04/01 01:11:38;;;;;;;3.83;3.53;;;4.00;99.90;;;;;;5080855;28;20063;-65
2022/04/01 01:14:10;;;;;;;4.25;3.78;;;3.90;99.90;;;;;;5081109;28;20033;-66
2022/04/01 01:16:40;;;;;;;4.47;3.50;;;4.00;99.90;;;;;;5079693;28;20312;-68
2022/04/01 01:19:11;;;;;;;3.95;3.65;;;3.90;99.90;;;;;;5063293;28;20032;-68
2022/04/01 01:21:39;;;;;;;3.58;3.28;;;4.10;99.90;;;;;;5079632;28;20028;-65
2022/04/01 01:24:07;;;;;;;3.00;2.80;;;4.00;99.90;;;;;;5079524;28;20028;-67
2022/04/01 01:26:35;;;;;;;3.65;3.35;;;3.80;99.90;;;;;;5079653;28;20029;-66
2022/04/01 01:29:02;;;;;;;3.75;3.45;;;4.00;99.90;;;;;;5078622;28;20036;-67
2022/04/01 01:31:28;;;;;;;3.55;3.25;;;4.00;99.90;;;;;;5078698;28;20024;-67
2022/04/01 01:33:55;;;;;;;3.70;3.40;;;4.00;99.90;;;;;;5078312;28;20033;-66
2022/04/01 01:36:23;;;;;;;3.30;3.00;;;4.00;99.90;;;;;;5078789;28;20090;-67
2022/04/01 01:38:52;;;;;;;3.70;3.40;;;4.00;99.90;;;;;;5078286;28;20035;-66
2022/04/01 01:41:20;;;;;;;3.10;2.88;;;3.80;99.90;;;;;;5079101;28;20037;-66
2022/04/01 01:43:46;;;;;;;3.58;3.28;;;3.70;99.90;;;;;;5077569;28;20105;-66
2022/04/01 01:46:12;;;;;;;3.33;3.03;;;3.70;99.90;;;;;;5060902;28;20304;-66
2022/04/01 01:48:39;;;;;;;3.35;3.05;;;3.60;99.90;;;;;;5060933;28;20033;-65
2022/04/01 01:56:35;;;;;;;3.80;3.20;;;3.50;99.90;;;;;;5078234;28;20079;-66
2022/04/01 01:59:04;;;;;;;3.42;3.13;;;3.30;99.90;;;;;;5077252;28;20032;-67
2022/04/01 02:01:33;;;;;;;2.97;2.78;;;3.40;99.90;;;;;;5060827;28;20021;-67
2022/04/01 02:04:01;;;;;;;3.25;2.95;;;3.40;99.90;;;;;;5043969;28;20102;-66
2022/04/01 02:06:27;;;;;;;4.95;3.42;;;3.20;99.90;;;;;;5060927;28;20461;-66
2022/04/01 02:08:54;;;;;;;3.72;3.42;;;3.30;99.90;;;;;;5077160;28;20395;-66
2022/04/01 02:11:21;;;;;;;3.33;3.03;;;3.40;99.90;;;;;;5077454;28;20051;-66
2022/04/01 02:13:50;;;;;;;3.40;3.10;;;3.50;99.90;;;;;;5077136;28;20047;-66
2022/04/01 02:16:17;;;;;;;3.45;2.97;;;3.50;99.90;;;;;;5076992;28;20079;-67
2022/04/01 02:18:44;;;;;;;3.30;3.00;;;3.30;99.90;;;;;;5060367;28;20033;-66
2022/04/01 02:21:15;;;;;;;3.67;3.35;;;3.40;99.90;;;;;;5076484;28;20040;-66
2022/04/01 02:23:46;;;;;;;3.38;3.00;;;3.30;99.90;;;;;;5060313;28;20036;-66
2022/04/01 02:26:15;;;;;;;3.50;3.20;;;3.10;99.90;;;;;;5077316;28;20308;-64
2022/04/01 02:28:42;;;;;;;3.28;2.97;;;3.20;99.90;;;;;;5076806;28;20034;-66
2022/04/01 02:31:11;;;;;;;3.45;3.08;;;3.10;99.90;;;;;;5060482;28;20067;-66
2022/04/01 02:33:56;;;;;;;4.20;3.28;;;3.10;99.90;;;;;;5077539;28;20090;-67
2022/04/01 02:36:22;;;;;;;3.50;3.20;;;3.10;99.90;;;;;;5077366;28;20055;-67
2022/04/01 02:38:50;;;;;;;3.53;3.22;;;3.00;99.90;;;;;;5076433;28;20032;-66
2022/04/01 02:41:17;;;;;;;3.95;3.60;;;3.10;99.90;;;;;;5076646;28;20120;-65
2022/04/01 02:43:43;;;;;;;3.80;3.50;;;3.00;99.90;;;;;;5077193;28;20115;-66
2022/04/01 02:46:10;;;;;;;3.60;3.30;;;3.10;99.90;;;;;;5077914;28;20033;-66
2022/04/01 02:48:46;;;;;;;3.70;3.35;;;3.10;99.90;;;;;;5076755;28;20056;-66
2022/04/01 02:51:39;;;;;;;3.63;3.33;;;3.10;99.90;;;;;;5076981;28;20048;-66
2022/04/01 02:54:13;;;;;;;3.60;3.30;;;3.00;99.90;;;;;;5076432;28;20039;-65
2022/04/01 02:56:40;;;;;;;3.47;3.17;;;3.00;99.90;;;;;;5077295;28;20032;-66
2022/04/01 02:59:09;;;;;;;3.40;3.10;;;3.00;99.90;;;;;;5076446;28;20334;-66
2022/04/01 03:01:38;;;;;;;4.75;3.45;;;3.00;99.90;;;;;;5076423;28;20108;-66
2022/04/01 03:04:09;;;;;;;3.83;3.53;;;3.00;99.90;;;;;;5059701;28;20083;-68
2022/04/01 03:06:40;;;;;;;4.03;3.63;;;2.90;99.90;;;;;;5060426;28;20024;-67
2022/04/01 03:09:07;;;;;;;3.63;3.33;;;3.00;99.90;;;;;;5076162;28;20025;-67
2022/04/01 03:11:33;;;;;;;3.70;3.40;;;2.90;99.90;;;;;;5076236;28;20311;-68
2022/04/01 03:13:59;;;;;;;3.53;3.22;;;3.00;99.90;;;;;;5076271;28;20040;-68
2022/04/01 03:16:25;;;;;;;3.55;3.25;;;3.00;99.90;;;;;;5060406;28;20051;-68
2022/04/01 03:18:59;;;;;;;4.10;3.50;;;2.90;99.90;;;;;;5060394;28;20028;-68
2022/04/01 03:21:27;;;;;;;3.90;3.20;;;2.90;99.90;;;;;;5061656;28;20033;-68
2022/04/01 03:23:53;;;;;;;4.75;3.58;;;3.00;99.90;;;;;;5059921;28;20025;-68
2022/04/01 03:26:23;;;;;;;3.40;3.10;;;3.00;99.90;;;;;;5076228;28;20044;-66
2022/04/01 03:29:01;;;;;;;3.95;3.20;;;2.90;99.90;;;;;;5076907;28;20036;-67
2022/04/01 03:31:28;;;;;;;3.65;3.35;;;2.90;99.90;;;;;;5060110;28;20028;-68
2022/04/01 03:33:56;;;;;;;3.38;3.08;;;2.80;99.90;;;;;;5064074;28;20304;-67
2022/04/01 03:36:26;;;;;;;4.03;3.70;;;2.90;99.90;;;;;;5065282;28;20043;-68
2022/04/01 03:38:53;;;;;;;4.28;3.80;;;3.00;99.90;;;;;;5049387;28;20044;-68
2022/04/01 03:41:24;;;;;;;4.13;3.72;;;3.10;99.90;;;;;;5064901;28;20040;-68
2022/04/01 03:43:52;;;;;;;4.47;4.07;;;2.90;99.90;;;;;;5063908;28;20078;-67
2022/04/01 03:46:22;;;;;;;3.47;3.20;;;2.90;99.90;;;;;;5080678;28;20036;-68
2022/04/01 03:49:04;;;;;;;3.83;3.53;;;2.90;99.90;;;;;;5080181;28;20032;-68
2022/04/01 03:51:31;;;;;;;4.07;3.67;;;2.90;99.90;;;;;;5082558;28;20402;-67
2022/04/01 03:54:03;;;;;;;3.72;3.42;;;2.90;99.90;;;;;;5063808;28;20056;-68
2022/04/01 03:57:00;;;;;;;3.65;3.35;;;2.90;99.90;;;;;;5081581;28;20393;-68
2022/04/01 03:59:50;;;;;;;4.35;3.95;;;2.90;99.90;;;;;;5080244;28;20048;-69
2022/04/01 04:02:35;;;;;;;4.85;4.00;;;2.90;99.90;;;;;;5080573;28;20095;-68
2022/04/01 04:05:03;;;;;;;3.67;3.38;;;2.80;99.90;;;;;;5079774;28;20025;-68
2022/04/01 04:07:33;;;;;;;4.00;3.70;;;2.80;99.90;;;;;;5063186;28;20029;-68
2022/04/01 04:10:07;;;;;;;4.47;4.07;;;2.80;99.90;;;;;;5079544;28;20124;-69
2022/04/01 04:12:40;;;;;;;6.85;4.32;;;2.80;99.90;;;;;;5063899;28;20194;-68
2022/04/01 04:15:07;;;;;;;4.43;4.05;;;2.80;99.90;;;;;;5079449;28;20025;-67
2022/04/01 04:17:40;;;;;;;4.95;3.97;;;2.70;99.90;;;;;;5062813;28;20031;-69
2022/04/01 04:20:10;;;;;;;4.63;4.22;;;2.60;99.90;;;;;;5080020;28;20036;-69
2022/04/01 04:22:55;;;;;;;4.90;4.50;;;2.60;99.90;;;;;;5079270;28;20024;-69
2022/04/01 04:25:24;;;;;;;5.10;4.68;;;2.50;99.90;;;;;;5079265;28;20351;-69
2022/04/01 04:28:00;;;;;;;4.78;4.38;;;2.40;99.90;;;;;;5078869;28;20025;-68
2022/04/01 04:30:33;;;;;;;5.60;4.88;;;2.40;99.90;;;;;;5062746;28;20035;-69
2022/04/01 04:33:27;;;;;;;5.38;4.88;;;2.50;99.90;;;;;;5081928;28;20392;-68
2022/04/01 04:35:53;;;;;;;6.28;4.78;;;2.30;99.90;;;;;;5079851;28;20036;-68
2022/04/01 04:38:24;;;;;;;5.40;4.90;;;2.40;99.90;;;;;;5078890;28;20032;-69
2022/04/01 04:40:52;;;;;;;5.38;4.88;;;2.50;99.90;;;;;;5078689;28;20044;-69
2022/04/01 04:43:23;;;;;;;4.70;4.30;;;2.50;99.90;;;;;;5062104;28;20423;-69
2022/04/01 04:45:52;;;;;;;4.72;4.32;;;2.50;99.90;;;;;;5079910;28;20350;-69
2022/04/01 04:48:19;;;;;;;4.53;4.13;;;2.40;99.90;;;;;;5078849;28;20042;-68
2022/04/01 04:50:49;;;;;;;4.70;4.30;;;2.50;99.90;;;;;;5079443;28;20021;-69
2022/04/01 04:53:19;;;;;;;5.78;4.75;;;2.50;99.90;;;;;;5078689;28;20056;-69
2022/04/01 04:55:48;;;;;;;5.55;5.05;;;2.60;99.90;;;;;;5079454;28;20304;-69
2022/04/01 04:58:24;;;;;;;5.28;4.85;;;2.50;99.90;;;;;;5063005;28;20300;-68
2022/04/01 05:01:02;;;;;;;5.35;4.90;;;2.50;99.90;;;;;;5078504;28;20020;-68
2022/04/01 05:03:44;;;;;;;4.70;4.30;;;2.50;99.90;;;;;;5079220;28;20027;-68
2022/04/01 05:06:17;;;;;;;4.70;4.20;;;2.40;99.90;;;;;;5078360;28;20472;-67
2022/04/01 05:09:29;;;;;;;5.13;4.63;;;2.40;99.90;;;;;;5079014;28;20119;-67
2022/04/01 05:12:44;;;;;;;5.13;4.40;;;2.30;99.90;;;;;;5078444;28;20130;-67
2022/04/01 05:15:19;;;;;;;5.40;4.90;;;2.30;99.90;;;;;;5079680;28;20047;-66
2022/04/01 05:18:14;;;;;;;5.30;4.80;;;2.30;99.90;;;;;;5078132;28;20131;-66
2022/04/01 05:20:56;;;;;;;4.43;4.03;;;2.30;99.90;;;;;;5078112;28;20020;-65
2022/04/01 05:23:48;;;;;;;5.35;4.85;;;2.30;99.90;;;;;;5078460;28;20055;-65
2022/04/01 05:26:20;;;;;;;4.90;4.43;;;2.20;99.90;;;;;;5078054;28;20415;-64
2022/04/01 05:29:26;;;;;;;5.82;5.32;;;2.10;99.90;;;;;;5078286;28;20029;-64
2022/04/01 05:32:02;;;;;;;5.40;4.90;;;2.20;99.90;;;;;;5078002;28;20021;-65
2022/04/01 05:34:33;;;;;;;5.97;5.25;;;2.20;99.90;;;;;;5077884;28;20288;-64
2022/04/01 05:37:00;;;;;;;5.78;5.18;;;2.20;99.90;;;;;;5078658;28;20120;-64
2022/04/01 05:39:30;;;;;;;5.63;5.03;;;2.20;99.90;;;;;;5077537;28;20055;-64
2022/04/01 05:42:02;;;;;;;6.03;5.43;;;2.20;99.90;;;;;;5077753;28;20304;-64
2022/04/01 05:44:36;;;;;;;6.35;5.20;;;2.30;99.90;;;;;;5077751;28;20039;-63
2022/04/01 05:47:04;;;;;;;6.10;5.53;;;2.20;99.90;;;;;;5077656;28;20052;-64
2022/04/01 05:49:31;;;;;;;6.60;5.38;;;2.30;99.90;;;;;;5077736;28;20063;-64
2022/04/01 05:51:58;;;;;;;5.40;4.90;;;2.30;99.90;;;;;;5077536;28;20029;-65
2022/04/01 05:54:26;;;;;;;5.97;5.43;;;2.20;99.90;;;;;;5078052;28;20392;-64
2022/04/01 05:56:52;;;;;;;5.63;5.13;;;2.20;99.90;;;;;;5076878;28;20316;-63
2022/04/01 05:59:21;;;;;;;5.75;5.25;;;2.20;99.90;;;;;;5077909;28;20032;-63
2022/04/01 06:02:09;;;;;;;6.72;5.97;;;2.20;99.90;;;;;;5077263;28;20028;-63
2022/04/01 06:05:07;;;;;;;6.50;5.30;;;2.30;99.90;;;;;;5078033;28;20017;-63
2022/04/01 06:07:37;;;;;;;6.05;5.45;;;2.30;99.90;;;;;;5077165;28;20434;-64
2022/04/01 06:10:11;;;;;;;6.07;5.13;;;2.30;99.90;;;;;;5077126;28;20119;-65
2022/04/01 06:13:21;;;;;;;7.95;5.38;;;2.30;99.90;;;;;;5086547;28;20032;-65
2022/04/01 06:16:31;;;;;;;5.80;5.05;;;2.20;99.90;;;;;;5077718;28;20036;-62
2022/04/01 06:19:23;;;;;;;6.45;5.22;;;2.40;99.90;;;;;;5077104;28;20086;-66
2022/04/01 06:22:06;;;;;;;7.28;5.03;;;3.00;99.90;;;;;;5076691;28;20089;-66
2022/04/01 06:25:12;;;;;;;5.30;4.80;;;2.80;99.90;;;;;;5077756;28;20036;-65
2022/04/01 06:27:48;;;;;;;7.60;5.03;;;2.60;99.90;;;;;;5076646;28;20304;-65
2022/04/01 06:30:22;;;;;;;5.53;5.00;;;2.60;99.90;;;;;;5077627;28;20279;-65
2022/04/01 06:33:22;;;;;;;6.53;5.82;;;2.50;99.90;;;;;;5077174;28;20044;-66
2022/04/01 06:36:38;;;;;;;8.10;5.07;;;2.60;99.90;;;;;;5076866;28;20033;-66
2022/04/01 06:39:08;;;;;;;6.28;4.80;;;2.50;99.90;;;;;;5076404;28;20024;-66
2022/04/01 06:41:47;;;;;;;5.72;4.30;;;2.50;99.90;;;;;;5060705;28;20465;-67
2022/04/01 06:44:32;;;;;;;;;;;2.40;99.90;;;;;;5077801;28;20181;-66
2022/04/01 06:47:17;;;;;;;5.43;4.80;;;2.40;99.90;;;;;;5077191;28;20019;-66
2022/04/01 06:49:43;;;;;;;5.63;5.00;;;2.40;99.90;;;;;;5076369;28;20431;-68
2022/04/01 06:52:32;;;;;;;5.45;4.88;;;2.50;99.90;;;;;;5076276;28;20044;-67
2022/04/01 06:55:16;;;;;;;6.43;5.00;;;2.50;99.90;;;;;;5077815;28;20035;-67
2022/04/01 06:57:59;;;;;;;6.63;4.40;;;2.60;99.90;;;;;;5076170;28;20064;-65
2022/04/01 07:00:45;;;;;;;5.65;4.78;;;2.50;99.90;;;;;;5076764;28;20060;-64
2022/04/01 07:03:12;;;;;;;4.95;4.30;;;2.40;99.90;;;;;;5077085;28;20419;-65
2022/04/01 07:05:39;;;;;;;6.47;5.18;;;2.30;99.90;;;;;;5076875;28;20071;-65
2022/04/01 07:08:06;;;;;;;5.80;5.20;;;2.40;99.90;;;;;;5076056;28;20371;-65
2022/04/01 07:10:33;;;;;;;5.80;5.20;;;2.50;99.90;;;;;;5077391;28;20064;-65
2022/04/01 07:12:59;;;;;;;5.88;5.15;;;2.50;99.90;;;;;;5077491;28;20123;-66
2022/04/01 07:15:25;;;;;;;7.15;4.93;;;2.60;99.90;;;;;;5076945;28;20025;-65
2022/04/01 07:17:51;;;;;;;7.53;5.50;;;2.60;99.90;;;;;;5076915;28;20025;-66
2022/04/01 07:20:20;;;;;;;7.15;5.00;;;2.50;99.90;;;;;;5076847;28;20346;-65
2022/04/01 07:22:46;;;;;;;5.80;5.20;;;2.50;99.90;;;;;;5076847;28;20025;-65
2022/04/01 07:25:12;;;;;;;7.50;4.70;;;2.50;99.90;;;;;;5076811;28;20016;-66
2022/04/01 07:27:39;;;;;;;5.60;4.22;;;2.50;99.90;;;;;;5076757;28;20031;-66
2022/04/01 07:30:08;;;;;;;7.40;4.95;;;2.50;99.90;;;;;;5075955;28;20043;-66
2022/04/01 07:32:35;;;;;;;6.45;4.90;;;2.50;99.90;;;;;;5076739;28;20027;-66
2022/04/01 07:35:09;;;;;;;6.15;4.72;;;2.50;99.90;;;;;;5076665;28;20024;-66
2022/04/01 07:37:35;;;;;;;4.68;4.22;;;2.50;99.90;;;;;;5076681;28;20017;-67
2022/04/01 07:40:02;;;;;;;5.85;4.32;;;2.60;99.90;;;;;;5076606;28;20345;-66
2022/04/01 07:42:31;;;;;;;4.70;3.95;;;2.50;99.90;;;;;;5076647;28;20040;-67
2022/04/01 07:44:57;;;;;;;5.75;4.53;;;2.50;99.90;;;;;;5076604;28;20277;-67
2022/04/01 07:47:24;;;;;;;4.53;4.13;;;2.60;99.90;;;;;;5076615;28;20385;-68
2022/04/01 07:49:51;;;;;;;4.90;4.45;;;2.50;99.90;;;;;;5076487;28;20068;-67
2022/04/01 07:52:19;;;;;;;4.80;4.05;;;2.50;99.90;;;;;;5076560;28;20071;-68
2022/04/01 07:54:46;;;;;;;4.57;3.95;;;2.60;99.90;;;;;;5076869;28;20032;-68
2022/04/01 07:57:13;;;;;;;4.70;3.78;;;2.50;99.90;;;;;;5076480;28;20040;-68
2022/04/01 07:59:40;;;;;;;4.57;3.90;;;2.60;99.90;;;;;;5076458;28;20036;-69
2022/04/01 08:02:06;;;;;;;5.50;4.07;;;2.60;99.90;;;;;;5076436;28;20514;-68
2022/04/01 08:04:33;;;;;;;6.40;4.10;;;2.60;99.90;;;;;;5076721;28;20055;-68
2022/04/01 08:06:59;;;;;;;5.07;4.13;;;2.80;99.90;;;;;;5076405;28;20097;-69
2022/04/01 08:09:25;;;;;;;4.68;3.97;;;2.80;99.90;;;;;;5076337;28;20033;-68
2022/04/01 08:11:52;;;;;;;7.50;3.80;;;2.90;99.90;;;;;;5076584;28;20321;-68
2022/04/01 08:14:18;;;;;;;4.53;3.60;;;2.90;99.90;;;;;;5076319;28;20113;-68
2022/04/01 08:16:45;;;;;;;5.18;4.10;;;2.80;99.90;;;;;;5076254;28;20020;-69
2022/04/01 08:19:11;;;;;;;4.45;3.80;;;2.90;99.90;;;;;;5078242;28;20178;-68
2022/04/01 08:21:38;;;;;;;5.75;3.72;;;3.10;99.90;;;;;;5080046;28;20045;-67
2022/04/01 08:24:04;;;;;;;5.07;3.60;;;3.10;99.90;;;;;;5079187;28;20105;-68
2022/04/01 08:26:30;;;;;;;5.82;3.95;;;2.90;99.90;;;;;;5079931;28;20389;-68
2022/04/01 08:28:56;;;;;;;5.57;4.35;;;3.10;99.90;;;;;;5079780;28;20320;-67
2022/04/01 08:31:22;;;;;;;4.03;3.65;;;3.10;99.90;;;;;;5079458;28;20052;-68
2022/04/01 08:33:50;;;;;;;4.70;3.70;;;3.20;99.90;;;;;;5079728;28;20027;-68
2022/04/01 08:36:17;;;;;;;5.55;3.67;;;3.20;99.90;;;;;;5079931;28;20063;-69
2022/04/01 08:38:44;;;;;;;4.93;3.88;;;3.10;99.90;;;;;;5079620;28;20111;-68
2022/04/01 08:41:10;;;;;;;3.63;3.20;;;3.10;99.90;;;;;;5078696;28;20052;-68
2022/04/01 08:43:39;;;;;;;4.30;3.58;;;3.30;99.90;;;;;;5080121;28;20028;-68
2022/04/01 08:46:07;;;;;;;3.72;2.90;;;3.30;99.90;;;;;;5079697;28;20072;-70
2022/04/01 08:48:35;;;;;;;4.32;3.67;;;3.20;99.90;;;;;;5079865;28;20104;-70
2022/04/01 08:51:01;;;;;;;5.53;3.58;;;3.20;99.90;;;;;;5079867;28;20021;-70
2022/04/01 08:53:27;;;;;;;4.15;3.60;;;3.30;99.90;;;;;;5079267;28;20033;-70
2022/04/01 08:55:55;;;;;;;4.95;3.63;;;3.50;99.90;;;;;;5079244;28;20360;-70
2022/04/01 08:58:23;;;;;;;4.45;3.70;;;3.50;99.90;;;;;;5079885;28;20108;-69
2022/04/01 09:00:50;;;;;;;5.75;3.60;;;3.50;99.90;;;;;;5078556;28;20355;-69
2022/04/01 09:03:19;;;;;;;4.57;3.65;;;3.60;99.90;;;;;;5079708;28;20032;-68
2022/04/01 09:05:50;;;;;;;5.25;4.07;;;3.60;99.90;;;;;;5078962;28;20115;-68
2022/04/01 09:08:26;;;;;;;4.13;3.20;;;3.50;99.90;;;;;;5079755;28;20029;-67
2022/04/01 09:11:05;;;;;;;3.55;3.25;;;3.40;99.90;;;;;;5079256;28;20021;-68
2022/04/01 09:13:33;;;;;;;4.85;3.10;;;3.50;99.90;;;;;;5078883;28;20025;-69
2022/04/01 09:15:59;;;;;;;4.00;3.30;;;3.70;99.90;;;;;;5079367;28;20162;-68
2022/04/01 09:18:36;;;;;;;5.38;3.25;;;3.80;99.90;;;;;;5078281;28;20036;-69
2022/04/01 09:21:02;;;;;;;3.35;2.97;;;3.80;99.90;;;;;;5078934;28;20036;-69
2022/04/01 09:23:28;;;;;;;3.63;3.22;;;3.70;99.90;;;;;;5078912;28;20029;-68
2022/04/01 09:25:54;;;;;;;4.18;3.10;;;3.70;99.90;;;;;;5078762;28;20054;-68
2022/04/01 09:28:24;;;;;;;3.95;3.30;;;3.90;99.90;;;;;;5078084;28;20043;-69
2022/04/01 09:31:12;;;;;;;4.00;3.50;;;4.00;99.90;;;;;;5077584;28;20044;-68
2022/04/01 09:33:45;;;;;;;4.43;3.30;;;4.00;99.90;;;;;;5078745;28;20054;-67
2022/04/01 09:36:17;;;;;;;4.03;3.20;;;3.90;99.90;;;;;;5077768;28;20048;-68
2022/04/01 09:39:06;;;;;;;3.47;3.17;;;3.80;99.90;;;;;;5079006;28;20028;-67
2022/04/01 09:41:49;;;;;;;6.10;3.10;;;3.80;99.90;;;;;;5077583;28;20044;-67
2022/04/01 09:44:23;;;;;;;3.88;3.28;;;3.70;99.90;;;;;;5078138;28;20048;-69
2022/04/01 09:46:52;;;;;;;3.58;2.80;;;3.80;99.90;;;;;;5078260;28;20032;-68
2022/04/01 09:49:39;;;;;;;2.97;2.67;;;3.80;99.90;;;;;;5078069;28;20308;-68
2022/04/01 09:52:11;;;;;;;2.60;2.40;;;3.90;99.90;;;;;;5077842;28;20046;-69
2022/04/01 09:54:50;;;;;;;5.88;2.60;;;3.70;99.90;;;;;;5077697;28;20035;-69
2022/04/01 09:57:19;;;;;;;3.92;2.65;;;3.70;99.90;;;;;;5078300;28;20389;-68
2022/04/01 09:59:46;;;;;;;3.70;2.40;;;3.70;99.90;;;;;;5078570;28;20132;-68
2022/04/01 10:02:13;;;;;;;5.53;2.53;;;3.80;99.90;;;;;;5078123;28;20041;-71
2022/04/01 10:04:39;;;;;;;3.22;2.03;;;4.00;99.90;;;;;;5077445;28;20395;-70
2022/04/01 10:07:05;;;;;;;2.40;2.20;;;4.00;99.90;;;;;;5077944;28;20316;-67
2022/04/01 10:09:33;;;;;;;3.17;2.30;;;4.00;99.90;;;;;;5077060;28;20094;-66
2022/04/01 10:12:05;;;;;;;4.68;2.03;;;4.30;99.90;;;;;;5060832;28;20198;-68
2022/04/01 10:14:32;;;;;;;3.72;1.70;;;4.30;99.90;;;;;;5077527;28;20024;-67
2022/04/01 10:17:00;;;;;;;2.33;1.77;;;4.50;99.90;;;;;;5077265;28;20121;-67
2022/04/01 10:19:31;;;;;;;5.07;1.85;;;4.60;99.90;;;;;;5077086;28;20025;-67
2022/04/01 10:21:58;;;;;;;3.00;1.73;;;4.70;99.90;;;;;;5077780;28;20119;-68
2022/04/01 10:24:27;;;;;;;2.40;1.60;;;4.90;99.90;;;;;;5077648;28;20039;-68
2022/04/01 10:27:14;;;;;;;2.83;1.70;;;4.90;99.90;;;;;;5060333;28;20273;-68
2022/04/01 10:29:42;;;;;;;4.20;1.65;;;4.70;99.90;;;;;;5077522;28;20038;-70
2022/04/01 10:32:27;;;;;;;2.75;1.80;;;4.70;99.90;;;;;;5077497;28;20110;-69
2022/04/01 10:35:01;;;;;;;2.15;1.85;;;4.70;99.90;;;;;;5077758;28;20035;-70
2022/04/01 10:37:30;;;;;;;2.20;1.38;;;4.90;99.90;;;;;;5077669;28;20303;-67
2022/04/01 10:40:33;;;;;;;2.38;1.70;;;4.60;99.90;;;;;;5077400;28;20055;-69
2022/04/01 10:43:11;;;;;;;1.95;1.67;;;4.50;99.90;;;;;;5077977;28;20127;-67
2022/04/01 10:45:39;;;;;;;3.78;1.70;;;4.60;99.90;;;;;;5076707;28;20031;-68
2022/04/01 10:54:01;;;;;;;3.40;1.88;;;5.00;99.90;;;;;;5077998;28;20292;-69
2022/04/01 10:56:36;;;;;;;3.50;1.75;;;5.00;99.90;;;;;;5076483;28;20319;-69
2022/04/01 10:59:11;;;;;;;2.50;1.58;;;5.10;99.90;;;;;;5077258;28;20024;-69
2022/04/01 11:01:56;;;;;;;3.35;1.80;;;5.20;99.90;;;;;;5077429;28;20037;-69
2022/04/01 11:04:26;;;;;;;2.50;1.63;;;5.50;99.90;;;;;;5076373;28;20097;-69
2022/04/01 11:06:56;;;;;;;3.42;1.77;;;5.50;99.90;;;;;;5077288;28;20032;-67
2022/04/01 11:09:44;;;;;;;2.57;1.43;;;5.30;99.90;;;;;;5076312;28;20357;-68
2022/04/01 11:12:32;;;;;;;4.30;1.48;;;5.30;99.90;;;;;;5077262;28;20308;-66
2022/04/01 11:17:41;;;;;;;2.25;1.33;;;5.20;99.90;;;;;;5077009;28;20357;-67
2022/04/01 11:20:10;;;;;;;3.50;1.40;;;5.10;99.90;;;;;;5077170;28;20028;-66
2022/04/01 11:22:54;;;;;;;2.30;1.40;;;5.20;99.90;;;;;;5076930;28;20400;-69
2022/04/01 11:25:22;;;;;;;4.28;1.40;;;5.30;99.90;;;;;;5076730;28;20400;-67
2022/04/01 11:27:50;;;;;;;5.25;1.33;;;5.30;99.90;;;;;;5059289;28;20028;-66
2022/04/01 11:30:20;;;;;;;3.83;1.65;;;5.40;99.90;;;;;;5076663;28;20351;-68
2022/04/01 11:32:52;;;;;;;2.88;1.58;;;5.80;99.90;;;;;;5076899;28;20351;-67
2022/04/01 11:35:22;;;;;;;2.45;1.70;;;6.00;99.90;;;;;;5076790;28;20269;-67
2022/04/01 11:37:49;;;;;;;3.10;2.00;;;6.20;99.90;;;;;;5076592;28;20111;-66
2022/04/01 11:40:17;;;;;;;2.22;1.50;;;6.60;99.90;;;;;;5075681;28;20053;-68
2022/04/01 11:42:57;;;;;;;4.65;1.40;;;6.70;99.90;;;;;;5076704;28;20174;-68
2022/04/01 11:45:25;;;;;;;3.22;1.45;;;6.60;99.90;;;;;;5075912;28;20028;-65
2022/04/01 11:47:52;;;;;;;4.80;2.47;;;6.40;99.90;;;;;;5075714;28;20052;-66
2022/04/01 11:50:20;;;;;;;3.42;1.80;;;6.30;99.90;;;;;;5076582;28;20277;-68
2022/04/01 11:52:50;;;;;;;3.38;2.10;;;6.30;99.90;;;;;;5076685;28;20090;-66
2022/04/01 11:55:21;;;;;;;2.20;1.58;;;6.20;99.90;;;;;;5080386;28;20033;-64
2022/04/01 11:57:48;;;;;;;3.60;2.00;;;6.30;99.90;;;;;;5079712;28;20384;-67
2022/04/01 12:00:27;;;;;;;3.28;1.90;;;6.50;99.90;;;;;;5080387;28;20021;-67
2022/04/01 12:02:54;;;;;;;2.58;1.88;;;6.70;99.90;;;;;;5079793;28;20033;-68
2022/04/01 12:05:21;;;;;;;3.22;2.13;;;6.50;99.90;;;;;;5079625;28;20044;-67
2022/04/01 12:10:39;;;;;;;2.93;1.70;;;6.60;99.90;;;;;;5080488;28;20032;-66
2022/04/01 12:13:09;;;;;;;3.22;1.80;;;6.10;99.90;;;;;;5080269;28;20171;-68
2022/04/01 12:15:41;;;;;;;3.20;1.67;;;5.90;99.90;;;;;;5079405;28;20060;-68
2022/04/01 12:18:18;;;;;;;4.88;2.05;;;5.90;99.90;;;;;;5062674;28;20041;-68
2022/04/01 12:20:48;;;;;;;2.90;1.90;;;5.90;99.90;;;;;;5080034;28;20024;-68
2022/04/01 12:23:16;;;;;;;2.53;1.70;;;6.10;99.90;;;;;;5080434;28;20063;-68
2022/04/01 12:25:44;;;;;;;1.88;1.40;;;6.20;99.90;;;;;;5062590;28;20107;-67
2022/04/01 12:28:12;;;;;;;1.70;1.50;;;5.90;99.90;;;;;;5079640;28;20054;-69
2022/04/01 12:30:44;;;;;;;2.65;1.88;;;5.40;99.90;;;;;;5079071;28;20025;-69
2022/04/01 12:33:25;;;;;;;2.65;1.83;;;4.90;99.90;;;;;;5079896;28;20029;-68
2022/04/01 12:36:09;;;;;;;4.35;2.20;;;4.80;99.90;;;;;;5079214;28;20031;-68
2022/04/01 12:38:36;;;;;;;4.70;2.15;;;4.80;99.90;;;;;;5079807;28;20024;-67
2022/04/01 12:41:13;;;;;;;3.30;2.47;;;5.00;99.90;;;;;;5078781;28;20059;-71
2022/04/01 12:43:43;;;;;;;4.57;2.30;;;5.10;99.90;;;;;;5078943;28;20398;-69
2022/04/01 12:46:11;;;;;;;2.53;2.28;;;5.20;99.90;;;;;;5078892;28;20115;-68
2022/04/01 12:48:47;;;;;;;4.53;2.17;;;5.30;99.90;;;;;;5078647;28;20056;-68
2022/04/01 12:51:24;;;;;;;3.30;2.33;;;5.40;99.90;;;;;;5078830;28;20020;-67
2022/04/01 12:54:00;;;;;;;2.40;2.00;;;5.40;99.90;;;;;;5046057;28;20048;-67
2022/04/01 12:56:35;;;;;;;2.35;2.03;;;5.60;99.90;;;;;;5079419;28;20380;-67
2022/04/01 12:59:14;;;;;;;2.35;2.08;;;5.50;99.90;;;;;;5078553;28;20021;-69
2022/04/01 13:01:42;;;;;;;2.58;2.17;;;5.50;99.90;;;;;;5061930;28;20036;-68
2022/04/01 13:04:20;;;;;;;3.60;2.20;;;5.60;99.90;;;;;;5078219;28;20024;-69
2022/04/01 13:07:08;;;;;;;4.00;2.00;;;5.60;99.90;;;;;;5078599;28;20177;-69
2022/04/01 13:09:57;;;;;;;2.25;1.88;;;5.50;99.90;;;;;;5079168;28;20153;-68
2022/04/01 13:12:31;;;;;;;3.00;2.33;;;5.60;99.90;;;;;;5079235;28;20033;-69
2022/04/01 13:15:09;;;;;;;3.40;2.22;;;5.60;99.90;;;;;;5079237;28;20028;-68
2022/04/01 13:17:50;;;;;;;2.65;2.05;;;5.40;99.90;;;;;;5078460;28;20319;-68
2022/04/01 13:20:30;;;;;;;2.67;2.05;;;5.30;99.90;;;;;;5078981;28;20461;-67
2022/04/01 13:22:56;;;;;;;2.83;2.08;;;5.20;99.90;;;;;;5078443;28;20436;-69
2022/04/01 13:25:25;;;;;;;3.22;2.20;;;5.30;99.90;;;;;;5078119;28;20040;-68
2022/04/01 13:27:51;;;;;;;3.35;2.20;;;5.50;99.90;;;;;;5078103;28;20419;-67
2022/04/01 13:30:20;;;;;;;2.72;2.30;;;5.50;99.90;;;;;;5078775;28;20028;-68
2022/04/01 13:32:46;;;;;;;3.97;2.17;;;5.60;99.90;;;;;;5078704;28;20060;-69
2022/04/01 13:35:12;;;;;;;2.75;1.83;;;5.60;99.90;;;;;;5078237;28;20045;-71
2022/04/01 13:37:38;;;;;;;2.88;2.53;;;5.60;99.90;;;;;;5078053;28;20119;-69
2022/04/01 13:40:05;;;;;;;2.80;2.22;;;5.50;99.90;;;;;;5077704;28;20048;-69
2022/04/01 13:42:32;;;;;;;3.17;2.13;;;5.50;99.90;;;;;;5078449;28;20028;-66